sensor_id;sensor_type;location;lat;lon;timestamp;P1;durP1;ratioP1;P2;durP2;ratioP2
7338;SDS011;33747;49.524;8.390;2022-12-07T00:01:35;11.57;;;7.75;;
7338;SDS011;33747;49.524;8.390;2022-12-07T00:04:03;11.93;;;8.40;;
7338;SDS011;33747;49.524;8.390;2022-12-07T00:06:37;15.65;;;8.32;;
7338;SDS011;33747;49.524;8.390;2022-12-07T00:09:04;11.95;;;7.55;;
7338;SDS011;33747;49.524;8.390;2022-12-07T00:11:30;15.65;;;8.30;;
7338;SDS011;33747;49.524;8.390;2022-12-07T00:13:59;14.77;;;8.63;;
7338;SDS011;33747;49.524;8.390;2022-12-07T00:16:27;12.73;;;8.65;;
7338;SDS011;33747;49.524;8.390;2022-12-07T00:18:53;13.40;;;7.22;;
7338;SDS011;33747;49.524;8.390;2022-12-07T00:21:20;13.05;;;7.70;;
7338;SDS011;33747;49.524;8.390;2022-12-07T00:23:47;11.15;;;7.68;;
7338;SDS011;33747;49.524;8.390;2022-12-07T00:28:40;12.77;;;8.25;;
7338;SDS011;33747;49.524;8.390;2022-12-07T00:31:07;11.48;;;7.55;;
7338;SDS011;33747;49.524;8.390;2022-12-07T00:33:34;9.77;;;6.78;;
7338;SDS011;33747;49.524;8.390;2022-12-07T00:36:00;12.20;;;6.43;;
7338;SDS011;33747;49.524;8.390;2022-12-07T00:38:28;13.70;;;6.57;;
7338;SDS011;33747;49.524;8.390;2022-12-07T00:40:58;10.52;;;7.40;;
7338;SDS011;33747;49.524;8.390;2022-12-07T00:43:25;10.02;;;7.70;;
7338;SDS011;33747;49.524;8.390;2022-12-07T00:45:51;16.13;;;7.30;;
7338;SDS011;33747;49.524;8.390;2022-12-07T00:48:16;12.70;;;7.90;;
7338;SDS011;33747;49.524;8.390;2022-12-07T00:50:41;13.75;;;7.82;;
7338;SDS011;33747;49.524;8.390;2022-12-07T00:53:07;11.80;;;7.40;;
7338;SDS011;33747;49.524;8.390;2022-12-07T00:55:33;9.88;;;7.15;;
7338;SDS011;33747;49.524;8.390;2022-12-07T00:57:58;14.35;;;7.53;;
7338;SDS011;33747;49.524;8.390;2022-12-07T01:00:24;13.02;;;7.78;;
7338;SDS011;33747;49.524;8.390;2022-12-07T01:02:49;11.63;;;7.80;;
7338;SDS011;33747;49.524;8.390;2022-12-07T01:05:15;11.23;;;6.95;;
7338;SDS011;33747;49.524;8.390;2022-12-07T01:07:40;19.75;;;7.28;;
7338;SDS011;33747;49.524;8.390;2022-12-07T01:10:06;11.10;;;8.02;;
7338;SDS011;33747;49.524;8.390;2022-12-07T01:12:31;12.57;;;8.10;;
7338;SDS011;33747;49.524;8.390;2022-12-07T01:14:57;10.68;;;7.07;;
7338;SDS011;33747;49.524;8.390;2022-12-07T01:17:22;13.70;;;7.40;;
7338;SDS011;33747;49.524;8.390;2022-12-07T01:19:47;13.40;;;8.45;;
7338;SDS011;33747;49.524;8.390;2022-12-07T01:22:13;14.15;;;8.77;;
7338;SDS011;33747;49.524;8.390;2022-12-07T01:24:38;12.60;;;7.97;;
7338;SDS011;33747;49.524;8.390;2022-12-07T01:27:04;10.82;;;6.72;;
7338;SDS011;33747;49.524;8.390;2022-12-07T01:29:29;11.57;;;7.25;;
7338;SDS011;33747;49.524;8.390;2022-12-07T01:31:54;7.53;;;6.05;;
7338;SDS011;33747;49.524;8.390;2022-12-07T01:34:20;9.85;;;6.15;;
7338;SDS011;33747;49.524;8.390;2022-12-07T01:36:45;7.80;;;5.95;;
7338;SDS011;33747;49.524;8.390;2022-12-07T01:39:10;10.40;;;6.57;;
7338;SDS011;33747;49.524;8.390;2022-12-07T01:41:37;8.65;;;6.72;;
7338;SDS011;33747;49.524;8.390;2022-12-07T01:44:13;8.98;;;6.43;;
7338;SDS011;33747;49.524;8.390;2022-12-07T01:46:42;11.55;;;7.13;;
7338;SDS011;33747;49.524;8.390;2022-12-07T01:49:10;10.27;;;6.82;;
7338;SDS011;33747;49.524;8.390;2022-12-07T01:51:40;10.15;;;6.75;;
7338;SDS011;33747;49.524;8.390;2022-12-07T01:54:06;9.05;;;7.15;;
7338;SDS011;33747;49.524;8.390;2022-12-07T01:56:32;7.82;;;6.43;;
7338;SDS011;33747;49.524;8.390;2022-12-07T01:58:58;11.07;;;7.07;;
7338;SDS011;33747;49.524;8.390;2022-12-07T02:01:25;10.05;;;6.93;;
7338;SDS011;33747;49.524;8.390;2022-12-07T02:03:50;10.50;;;6.90;;
7338;SDS011;33747;49.524;8.390;2022-12-07T02:06:16;9.20;;;6.90;;
7338;SDS011;33747;49.524;8.390;2022-12-07T02:08:44;10.13;;;6.60;;
7338;SDS011;33747;49.524;8.390;2022-12-07T02:11:10;9.05;;;6.50;;
7338;SDS011;33747;49.524;8.390;2022-12-07T02:13:36;8.13;;;6.78;;
7338;SDS011;33747;49.524;8.390;2022-12-07T02:22:16;10.40;;;6.80;;
7338;SDS011;33747;49.524;8.390;2022-12-07T02:24:57;11.13;;;7.40;;
7338;SDS011;33747;49.524;8.390;2022-12-07T02:27:39;12.40;;;7.25;;
7338;SDS011;33747;49.524;8.390;2022-12-07T02:30:15;14.10;;;7.90;;
7338;SDS011;33747;49.524;8.390;2022-12-07T02:40:54;12.38;;;7.22;;
7338;SDS011;33747;49.524;8.390;2022-12-07T02:43:38;15.13;;;6.82;;
7338;SDS011;33747;49.524;8.390;2022-12-07T02:46:07;9.73;;;6.60;;
7338;SDS011;33747;49.524;8.390;2022-12-07T02:48:34;9.60;;;7.05;;
7338;SDS011;33747;49.524;8.390;2022-12-07T02:51:02;12.80;;;7.38;;
7338;SDS011;33747;49.524;8.390;2022-12-07T02:53:31;12.02;;;6.60;;
7338;SDS011;33747;49.524;8.390;2022-12-07T02:55:58;9.50;;;6.70;;
7338;SDS011;33747;49.524;8.390;2022-12-07T02:58:30;11.40;;;6.38;;
7338;SDS011;33747;49.524;8.390;2022-12-07T03:01:16;10.07;;;6.47;;
7338;SDS011;33747;49.524;8.390;2022-12-07T03:03:47;7.05;;;5.20;;
7338;SDS011;33747;49.524;8.390;2022-12-07T03:06:16;13.05;;;6.65;;
7338;SDS011;33747;49.524;8.390;2022-12-07T03:08:55;13.43;;;6.78;;
7338;SDS011;33747;49.524;8.390;2022-12-07T03:11:29;12.80;;;6.57;;
7338;SDS011;33747;49.524;8.390;2022-12-07T03:14:15;9.20;;;7.00;;
7338;SDS011;33747;49.524;8.390;2022-12-07T03:16:46;14.93;;;7.78;;
7338;SDS011;33747;49.524;8.390;2022-12-07T03:19:18;12.63;;;6.45;;
7338;SDS011;33747;49.524;8.390;2022-12-07T03:21:55;10.35;;;6.18;;
7338;SDS011;33747;49.524;8.390;2022-12-07T03:24:27;15.13;;;6.88;;
7338;SDS011;33747;49.524;8.390;2022-12-07T03:27:04;9.55;;;6.50;;
7338;SDS011;33747;49.524;8.390;2022-12-07T03:29:34;11.52;;;7.43;;
7338;SDS011;33747;49.524;8.390;2022-12-07T03:32:03;10.55;;;6.68;;
7338;SDS011;33747;49.524;8.390;2022-12-07T03:34:37;11.25;;;6.53;;
7338;SDS011;33747;49.524;8.390;2022-12-07T03:37:11;10.02;;;7.38;;
7338;SDS011;33747;49.524;8.390;2022-12-07T03:39:48;8.60;;;6.70;;
7338;SDS011;33747;49.524;8.390;2022-12-07T03:42:22;11.57;;;6.90;;
7338;SDS011;33747;49.524;8.390;2022-12-07T03:44:47;13.40;;;6.82;;
7338;SDS011;33747;49.524;8.390;2022-12-07T03:47:27;10.38;;;6.68;;
7338;SDS011;33747;49.524;8.390;2022-12-07T03:49:55;9.63;;;6.25;;
7338;SDS011;33747;49.524;8.390;2022-12-07T03:55:09;10.13;;;6.15;;
7338;SDS011;33747;49.524;8.390;2022-12-07T04:00:04;13.52;;;7.15;;
7338;SDS011;33747;49.524;8.390;2022-12-07T04:02:30;9.32;;;6.80;;
7338;SDS011;33747;49.524;8.390;2022-12-07T04:04:57;10.25;;;7.03;;
7338;SDS011;33747;49.524;8.390;2022-12-07T04:07:22;10.55;;;6.43;;
7338;SDS011;33747;49.524;8.390;2022-12-07T04:09:47;8.55;;;6.40;;
7338;SDS011;33747;49.524;8.390;2022-12-07T04:12:13;9.18;;;6.70;;
7338;SDS011;33747;49.524;8.390;2022-12-07T04:14:38;7.13;;;5.95;;
7338;SDS011;33747;49.524;8.390;2022-12-07T04:17:04;9.32;;;6.30;;
7338;SDS011;33747;49.524;8.390;2022-12-07T04:19:30;10.65;;;6.35;;
7338;SDS011;33747;49.524;8.390;2022-12-07T04:21:57;11.02;;;6.03;;
7338;SDS011;33747;49.524;8.390;2022-12-07T04:24:23;10.10;;;6.43;;
7338;SDS011;33747;49.524;8.390;2022-12-07T04:26:49;8.40;;;6.38;;
7338;SDS011;33747;49.524;8.390;2022-12-07T04:29:15;9.52;;;6.43;;
7338;SDS011;33747;49.524;8.390;2022-12-07T04:31:40;9.00;;;6.40;;
7338;SDS011;33747;49.524;8.390;2022-12-07T04:34:06;12.18;;;6.25;;
7338;SDS011;33747;49.524;8.390;2022-12-07T04:36:31;10.98;;;7.53;;
7338;SDS011;33747;49.524;8.390;2022-12-07T04:38:57;11.65;;;6.75;;
7338;SDS011;33747;49.524;8.390;2022-12-07T04:41:23;11.52;;;6.32;;
7338;SDS011;33747;49.524;8.390;2022-12-07T04:43:55;8.50;;;5.88;;
7338;SDS011;33747;49.524;8.390;2022-12-07T04:46:22;8.40;;;6.63;;
7338;SDS011;33747;49.524;8.390;2022-12-07T04:48:49;10.27;;;6.28;;
7338;SDS011;33747;49.524;8.390;2022-12-07T04:51:15;9.93;;;6.82;;
7338;SDS011;33747;49.524;8.390;2022-12-07T04:53:44;10.50;;;7.03;;
7338;SDS011;33747;49.524;8.390;2022-12-07T04:56:09;9.52;;;6.68;;
7338;SDS011;33747;49.524;8.390;2022-12-07T04:58:34;9.02;;;6.20;;
7338;SDS011;33747;49.524;8.390;2022-12-07T05:01:00;11.45;;;7.18;;
7338;SDS011;33747;49.524;8.390;2022-12-07T05:03:25;11.00;;;6.60;;
7338;SDS011;33747;49.524;8.390;2022-12-07T05:05:50;10.23;;;7.38;;
7338;SDS011;33747;49.524;8.390;2022-12-07T05:08:16;11.70;;;6.90;;
7338;SDS011;33747;49.524;8.390;2022-12-07T05:10:41;10.55;;;7.05;;
7338;SDS011;33747;49.524;8.390;2022-12-07T05:13:07;12.00;;;7.13;;
7338;SDS011;33747;49.524;8.390;2022-12-07T05:15:32;12.07;;;7.30;;
7338;SDS011;33747;49.524;8.390;2022-12-07T05:17:57;8.95;;;6.75;;
7338;SDS011;33747;49.524;8.390;2022-12-07T05:20:23;8.40;;;6.90;;
7338;SDS011;33747;49.524;8.390;2022-12-07T05:22:48;7.32;;;5.93;;
7338;SDS011;33747;49.524;8.390;2022-12-07T05:25:13;11.00;;;7.10;;
7338;SDS011;33747;49.524;8.390;2022-12-07T05:27:39;8.80;;;6.47;;
7338;SDS011;33747;49.524;8.390;2022-12-07T05:30:06;7.97;;;6.10;;
7338;SDS011;33747;49.524;8.390;2022-12-07T05:32:32;9.15;;;6.28;;
7338;SDS011;33747;49.524;8.390;2022-12-07T05:34:57;8.45;;;6.40;;
7338;SDS011;33747;49.524;8.390;2022-12-07T05:37:22;8.88;;;5.80;;
7338;SDS011;33747;49.524;8.390;2022-12-07T05:39:48;9.55;;;6.75;;
7338;SDS011;33747;49.524;8.390;2022-12-07T05:42:13;12.02;;;6.38;;
7338;SDS011;33747;49.524;8.390;2022-12-07T05:44:43;11.43;;;6.75;;
7338;SDS011;33747;49.524;8.390;2022-12-07T05:47:10;9.02;;;6.80;;
7338;SDS011;33747;49.524;8.390;2022-12-07T05:49:35;9.70;;;6.32;;
7338;SDS011;33747;49.524;8.390;2022-12-07T05:52:01;9.57;;;6.50;;
7338;SDS011;33747;49.524;8.390;2022-12-07T05:54:27;11.07;;;6.05;;
7338;SDS011;33747;49.524;8.390;2022-12-07T05:56:52;10.57;;;6.93;;
7338;SDS011;33747;49.524;8.390;2022-12-07T05:59:17;10.20;;;5.95;;
7338;SDS011;33747;49.524;8.390;2022-12-07T06:04:14;7.93;;;6.07;;
7338;SDS011;33747;49.524;8.390;2022-12-07T06:06:40;8.95;;;6.65;;
7338;SDS011;33747;49.524;8.390;2022-12-07T06:09:05;11.35;;;6.25;;
7338;SDS011;33747;49.524;8.390;2022-12-07T06:11:31;7.45;;;5.95;;
7338;SDS011;33747;49.524;8.390;2022-12-07T06:14:15;10.63;;;6.60;;
7338;SDS011;33747;49.524;8.390;2022-12-07T06:16:40;9.30;;;6.47;;
7338;SDS011;33747;49.524;8.390;2022-12-07T06:19:06;7.40;;;5.95;;
7338;SDS011;33747;49.524;8.390;2022-12-07T06:21:31;8.23;;;6.28;;
7338;SDS011;33747;49.524;8.390;2022-12-07T06:23:56;8.90;;;6.38;;
7338;SDS011;33747;49.524;8.390;2022-12-07T06:26:22;8.57;;;6.93;;
7338;SDS011;33747;49.524;8.390;2022-12-07T06:28:47;9.43;;;6.88;;
7338;SDS011;33747;49.524;8.390;2022-12-07T06:31:13;13.05;;;6.45;;
7338;SDS011;33747;49.524;8.390;2022-12-07T06:33:38;9.23;;;6.47;;
7338;SDS011;33747;49.524;8.390;2022-12-07T06:36:03;10.25;;;7.20;;
7338;SDS011;33747;49.524;8.390;2022-12-07T06:38:29;9.73;;;7.18;;
7338;SDS011;33747;49.524;8.390;2022-12-07T06:40:54;11.85;;;8.35;;
7338;SDS011;33747;49.524;8.390;2022-12-07T06:43:20;15.95;;;8.48;;
7338;SDS011;33747;49.524;8.390;2022-12-07T06:45:45;10.90;;;7.72;;
7338;SDS011;33747;49.524;8.390;2022-12-07T06:48:11;12.25;;;7.35;;
7338;SDS011;33747;49.524;8.390;2022-12-07T06:50:36;9.32;;;6.97;;
7338;SDS011;33747;49.524;8.390;2022-12-07T06:53:01;12.25;;;6.38;;
7338;SDS011;33747;49.524;8.390;2022-12-07T06:55:27;17.33;;;6.65;;
7338;SDS011;33747;49.524;8.390;2022-12-07T06:57:52;13.82;;;7.13;;
7338;SDS011;33747;49.524;8.390;2022-12-07T07:00:18;10.10;;;6.72;;
7338;SDS011;33747;49.524;8.390;2022-12-07T07:02:43;10.30;;;6.35;;
7338;SDS011;33747;49.524;8.390;2022-12-07T07:05:08;10.60;;;6.93;;
7338;SDS011;33747;49.524;8.390;2022-12-07T07:07:34;10.38;;;6.63;;
7338;SDS011;33747;49.524;8.390;2022-12-07T07:09:59;15.38;;;7.43;;
7338;SDS011;33747;49.524;8.390;2022-12-07T07:12:25;12.07;;;7.38;;
7338;SDS011;33747;49.524;8.390;2022-12-07T07:14:50;10.63;;;7.18;;
7338;SDS011;33747;49.524;8.390;2022-12-07T07:17:15;9.52;;;7.03;;
7338;SDS011;33747;49.524;8.390;2022-12-07T07:19:41;11.05;;;7.25;;
7338;SDS011;33747;49.524;8.390;2022-12-07T07:22:06;11.18;;;7.43;;
7338;SDS011;33747;49.524;8.390;2022-12-07T07:24:31;9.35;;;6.97;;
7338;SDS011;33747;49.524;8.390;2022-12-07T07:26:57;11.18;;;7.40;;
7338;SDS011;33747;49.524;8.390;2022-12-07T07:29:22;11.73;;;7.15;;
7338;SDS011;33747;49.524;8.390;2022-12-07T07:31:48;10.60;;;7.47;;
7338;SDS011;33747;49.524;8.390;2022-12-07T07:34:13;14.75;;;8.23;;
7338;SDS011;33747;49.524;8.390;2022-12-07T07:36:38;11.60;;;8.75;;
7338;SDS011;33747;49.524;8.390;2022-12-07T07:39:04;11.70;;;8.68;;
7338;SDS011;33747;49.524;8.390;2022-12-07T07:41:29;10.90;;;7.63;;
7338;SDS011;33747;49.524;8.390;2022-12-07T07:43:55;18.35;;;8.38;;
7338;SDS011;33747;49.524;8.390;2022-12-07T07:46:20;13.25;;;8.68;;
7338;SDS011;33747;49.524;8.390;2022-12-07T07:48:46;14.57;;;8.65;;
7338;SDS011;33747;49.524;8.390;2022-12-07T07:51:11;14.27;;;8.82;;
7338;SDS011;33747;49.524;8.390;2022-12-07T07:53:36;13.65;;;10.05;;
7338;SDS011;33747;49.524;8.390;2022-12-07T07:56:02;19.48;;;9.57;;
7338;SDS011;33747;49.524;8.390;2022-12-07T07:58:27;16.85;;;9.63;;
7338;SDS011;33747;49.524;8.390;2022-12-07T08:00:53;11.63;;;9.07;;
7338;SDS011;33747;49.524;8.390;2022-12-07T08:03:19;13.07;;;7.82;;
7338;SDS011;33747;49.524;8.390;2022-12-07T08:05:44;12.30;;;8.70;;
7338;SDS011;33747;49.524;8.390;2022-12-07T08:08:10;15.23;;;8.65;;
7338;SDS011;33747;49.524;8.390;2022-12-07T08:10:35;13.82;;;8.15;;
7338;SDS011;33747;49.524;8.390;2022-12-07T08:13:02;12.73;;;7.82;;
7338;SDS011;33747;49.524;8.390;2022-12-07T08:15:37;13.57;;;8.25;;
7338;SDS011;33747;49.524;8.390;2022-12-07T08:18:03;15.73;;;8.45;;
7338;SDS011;33747;49.524;8.390;2022-12-07T08:20:32;10.68;;;7.72;;
7338;SDS011;33747;49.524;8.390;2022-12-07T08:22:58;11.20;;;8.02;;
7338;SDS011;33747;49.524;8.390;2022-12-07T08:25:23;12.13;;;8.40;;
7338;SDS011;33747;49.524;8.390;2022-12-07T08:27:49;12.50;;;8.50;;
7338;SDS011;33747;49.524;8.390;2022-12-07T08:30:14;19.52;;;8.98;;
7338;SDS011;33747;49.524;8.390;2022-12-07T08:32:40;12.68;;;8.00;;
7338;SDS011;33747;49.524;8.390;2022-12-07T08:35:05;18.77;;;8.45;;
7338;SDS011;33747;49.524;8.390;2022-12-07T08:37:31;10.88;;;8.07;;
7338;SDS011;33747;49.524;8.390;2022-12-07T08:39:57;11.73;;;8.50;;
7338;SDS011;33747;49.524;8.390;2022-12-07T08:42:22;17.27;;;9.27;;
7338;SDS011;33747;49.524;8.390;2022-12-07T08:44:52;12.93;;;8.75;;
7338;SDS011;33747;49.524;8.390;2022-12-07T08:47:18;13.13;;;8.77;;
7338;SDS011;33747;49.524;8.390;2022-12-07T08:49:44;10.32;;;7.85;;
7338;SDS011;33747;49.524;8.390;2022-12-07T08:52:11;14.60;;;8.70;;
7338;SDS011;33747;49.524;8.390;2022-12-07T08:54:36;10.30;;;8.20;;
7338;SDS011;33747;49.524;8.390;2022-12-07T08:57:04;13.00;;;8.93;;
7338;SDS011;33747;49.524;8.390;2022-12-07T08:59:29;12.20;;;9.10;;
7338;SDS011;33747;49.524;8.390;2022-12-07T09:01:55;11.27;;;8.38;;
7338;SDS011;33747;49.524;8.390;2022-12-07T09:04:20;21.33;;;10.23;;
7338;SDS011;33747;49.524;8.390;2022-12-07T09:06:46;20.08;;;10.10;;
7338;SDS011;33747;49.524;8.390;2022-12-07T09:09:11;14.30;;;9.70;;
7338;SDS011;33747;49.524;8.390;2022-12-07T09:11:38;13.38;;;8.95;;
7338;SDS011;33747;49.524;8.390;2022-12-07T09:14:04;13.40;;;9.63;;
7338;SDS011;33747;49.524;8.390;2022-12-07T09:16:29;11.07;;;7.97;;
7338;SDS011;33747;49.524;8.390;2022-12-07T09:18:55;15.07;;;8.75;;
7338;SDS011;33747;49.524;8.390;2022-12-07T09:21:20;13.35;;;8.75;;
7338;SDS011;33747;49.524;8.390;2022-12-07T09:23:46;15.18;;;9.38;;
7338;SDS011;33747;49.524;8.390;2022-12-07T09:26:11;16.40;;;9.95;;
7338;SDS011;33747;49.524;8.390;2022-12-07T09:28:50;14.52;;;8.63;;
7338;SDS011;33747;49.524;8.390;2022-12-07T09:31:16;14.88;;;8.60;;
7338;SDS011;33747;49.524;8.390;2022-12-07T09:33:42;13.60;;;8.05;;
7338;SDS011;33747;49.524;8.390;2022-12-07T09:36:07;12.73;;;8.85;;
7338;SDS011;33747;49.524;8.390;2022-12-07T09:38:34;14.38;;;9.05;;
7338;SDS011;33747;49.524;8.390;2022-12-07T09:41:03;12.75;;;8.27;;
7338;SDS011;33747;49.524;8.390;2022-12-07T09:43:30;10.30;;;7.82;;
7338;SDS011;33747;49.524;8.390;2022-12-07T09:45:55;11.18;;;7.35;;
7338;SDS011;33747;49.524;8.390;2022-12-07T09:48:22;12.70;;;8.52;;
7338;SDS011;33747;49.524;8.390;2022-12-07T09:50:54;18.23;;;9.18;;
7338;SDS011;33747;49.524;8.390;2022-12-07T09:53:26;10.68;;;7.18;;
7338;SDS011;33747;49.524;8.390;2022-12-07T09:55:53;24.10;;;13.63;;
7338;SDS011;33747;49.524;8.390;2022-12-07T09:58:23;23.42;;;12.65;;
7338;SDS011;33747;49.524;8.390;2022-12-07T10:00:52;14.38;;;9.05;;
7338;SDS011;33747;49.524;8.390;2022-12-07T10:03:19;11.05;;;7.45;;
7338;SDS011;33747;49.524;8.390;2022-12-07T10:05:46;11.82;;;8.73;;
7338;SDS011;33747;49.524;8.390;2022-12-07T10:08:13;15.32;;;8.27;;
7338;SDS011;33747;49.524;8.390;2022-12-07T10:10:40;11.40;;;7.72;;
7338;SDS011;33747;49.524;8.390;2022-12-07T10:13:09;11.57;;;8.18;;
7338;SDS011;33747;49.524;8.390;2022-12-07T10:18:21;9.95;;;7.22;;
7338;SDS011;33747;49.524;8.390;2022-12-07T10:21:00;10.85;;;6.78;;
7338;SDS011;33747;49.524;8.390;2022-12-07T10:23:25;10.20;;;7.25;;
7338;SDS011;33747;49.524;8.390;2022-12-07T10:25:51;14.02;;;8.60;;
7338;SDS011;33747;49.524;8.390;2022-12-07T10:28:19;9.30;;;7.03;;
7338;SDS011;33747;49.524;8.390;2022-12-07T10:30:46;10.15;;;7.38;;
7338;SDS011;33747;49.524;8.390;2022-12-07T10:35:58;10.20;;;7.05;;
7338;SDS011;33747;49.524;8.390;2022-12-07T10:38:28;11.60;;;6.72;;
7338;SDS011;33747;49.524;8.390;2022-12-07T10:41:03;12.13;;;6.65;;
7338;SDS011;33747;49.524;8.390;2022-12-07T10:43:32;11.95;;;8.23;;
7338;SDS011;33747;49.524;8.390;2022-12-07T10:46:13;14.82;;;7.90;;
7338;SDS011;33747;49.524;8.390;2022-12-07T10:55:35;10.23;;;6.38;;
7338;SDS011;33747;49.524;8.390;2022-12-07T11:00:34;10.57;;;6.85;;
7338;SDS011;33747;49.524;8.390;2022-12-07T11:05:54;8.40;;;5.93;;
7338;SDS011;33747;49.524;8.390;2022-12-07T11:08:27;10.00;;;6.38;;
7338;SDS011;33747;49.524;8.390;2022-12-07T11:11:09;16.38;;;6.85;;
7338;SDS011;33747;49.524;8.390;2022-12-07T11:17:05;11.63;;;7.63;;
7338;SDS011;33747;49.524;8.390;2022-12-07T11:19:54;9.55;;;6.30;;
7338;SDS011;33747;49.524;8.390;2022-12-07T11:30:33;6.78;;;5.72;;
7338;SDS011;33747;49.524;8.390;2022-12-07T11:38:08;7.72;;;5.57;;
7338;SDS011;33747;49.524;8.390;2022-12-07T11:40:37;11.05;;;5.70;;
7338;SDS011;33747;49.524;8.390;2022-12-07T11:43:13;14.77;;;5.43;;
7338;SDS011;33747;49.524;8.390;2022-12-07T11:45:43;7.90;;;4.63;;
7338;SDS011;33747;49.524;8.390;2022-12-07T11:51:20;8.60;;;4.18;;
7338;SDS011;33747;49.524;8.390;2022-12-07T11:53:51;5.22;;;3.85;;
7338;SDS011;33747;49.524;8.390;2022-12-07T11:56:20;5.78;;;3.80;;
7338;SDS011;33747;49.524;8.390;2022-12-07T12:03:56;9.70;;;4.22;;
7338;SDS011;33747;49.524;8.390;2022-12-07T12:06:25;7.93;;;4.47;;
7338;SDS011;33747;49.524;8.390;2022-12-07T12:16:55;9.45;;;4.47;;
7338;SDS011;33747;49.524;8.390;2022-12-07T12:22:23;8.18;;;3.53;;
7338;SDS011;33747;49.524;8.390;2022-12-07T12:24:54;7.35;;;3.90;;
7338;SDS011;33747;49.524;8.390;2022-12-07T12:27:25;5.75;;;3.90;;
7338;SDS011;33747;49.524;8.390;2022-12-07T12:29:58;5.03;;;3.78;;
7338;SDS011;33747;49.524;8.390;2022-12-07T12:37:48;7.57;;;3.88;;
7338;SDS011;33747;49.524;8.390;2022-12-07T12:42:46;6.03;;;4.05;;
7338;SDS011;33747;49.524;8.390;2022-12-07T12:45:31;6.00;;;3.55;;
7338;SDS011;33747;49.524;8.390;2022-12-07T12:50:34;5.78;;;4.00;;
7338;SDS011;33747;49.524;8.390;2022-12-07T13:00:45;6.50;;;3.00;;
7338;SDS011;33747;49.524;8.390;2022-12-07T13:03:26;4.28;;;3.03;;
7338;SDS011;33747;49.524;8.390;2022-12-07T13:08:54;5.43;;;3.22;;
7338;SDS011;33747;49.524;8.390;2022-12-07T13:19:27;5.90;;;3.78;;
7338;SDS011;33747;49.524;8.390;2022-12-07T13:25:11;7.70;;;3.65;;
7338;SDS011;33747;49.524;8.390;2022-12-07T13:27:56;8.07;;;3.47;;
7338;SDS011;33747;49.524;8.390;2022-12-07T13:30:38;6.38;;;3.67;;
7338;SDS011;33747;49.524;8.390;2022-12-07T13:33:08;4.70;;;3.15;;
7338;SDS011;33747;49.524;8.390;2022-12-07T13:35:35;8.93;;;3.47;;
7338;SDS011;33747;49.524;8.390;2022-12-07T13:38:05;9.52;;;6.40;;
7338;SDS011;33747;49.524;8.390;2022-12-07T13:40:38;6.35;;;3.95;;
7338;SDS011;33747;49.524;8.390;2022-12-07T13:43:04;7.25;;;3.50;;
7338;SDS011;33747;49.524;8.390;2022-12-07T13:45:38;7.13;;;2.92;;
7338;SDS011;33747;49.524;8.390;2022-12-07T13:48:32;9.13;;;3.90;;
7338;SDS011;33747;49.524;8.390;2022-12-07T13:51:02;5.03;;;3.40;;
7338;SDS011;33747;49.524;8.390;2022-12-07T13:53:28;6.45;;;3.47;;
7338;SDS011;33747;49.524;8.390;2022-12-07T13:55:56;7.95;;;3.10;;
7338;SDS011;33747;49.524;8.390;2022-12-07T13:58:23;5.97;;;2.83;;
7338;SDS011;33747;49.524;8.390;2022-12-07T14:00:48;4.10;;;2.97;;
7338;SDS011;33747;49.524;8.390;2022-12-07T14:05:40;6.50;;;2.95;;
7338;SDS011;33747;49.524;8.390;2022-12-07T14:10:41;7.63;;;2.80;;
7338;SDS011;33747;49.524;8.390;2022-12-07T14:15:56;7.63;;;3.13;;
7338;SDS011;33747;49.524;8.390;2022-12-07T14:18:27;7.50;;;3.50;;
7338;SDS011;33747;49.524;8.390;2022-12-07T14:21:02;8.15;;;3.60;;
7338;SDS011;33747;49.524;8.390;2022-12-07T14:23:29;8.43;;;3.85;;
7338;SDS011;33747;49.524;8.390;2022-12-07T14:26:03;8.40;;;3.65;;
7338;SDS011;33747;49.524;8.390;2022-12-07T14:28:33;6.25;;;3.20;;
7338;SDS011;33747;49.524;8.390;2022-12-07T14:31:01;6.03;;;3.13;;
7338;SDS011;33747;49.524;8.390;2022-12-07T14:33:26;5.70;;;3.30;;
7338;SDS011;33747;49.524;8.390;2022-12-07T14:35:52;6.00;;;3.55;;
7338;SDS011;33747;49.524;8.390;2022-12-07T14:38:23;5.55;;;4.05;;
7338;SDS011;33747;49.524;8.390;2022-12-07T14:40:49;5.65;;;3.10;;
7338;SDS011;33747;49.524;8.390;2022-12-07T14:43:15;5.78;;;3.55;;
7338;SDS011;33747;49.524;8.390;2022-12-07T14:45:41;7.72;;;3.38;;
7338;SDS011;33747;49.524;8.390;2022-12-07T14:48:07;6.55;;;3.10;;
7338;SDS011;33747;49.524;8.390;2022-12-07T14:50:37;7.72;;;3.30;;
7338;SDS011;33747;49.524;8.390;2022-12-07T14:53:12;7.88;;;3.03;;
7338;SDS011;33747;49.524;8.390;2022-12-07T14:55:39;6.85;;;3.50;;
7338;SDS011;33747;49.524;8.390;2022-12-07T14:58:04;6.18;;;3.63;;
7338;SDS011;33747;49.524;8.390;2022-12-07T15:00:30;8.75;;;4.30;;
7338;SDS011;33747;49.524;8.390;2022-12-07T15:02:56;8.98;;;4.78;;
7338;SDS011;33747;49.524;8.390;2022-12-07T15:05:21;7.43;;;3.33;;
7338;SDS011;33747;49.524;8.390;2022-12-07T15:07:47;7.15;;;3.83;;
7338;SDS011;33747;49.524;8.390;2022-12-07T15:10:17;5.72;;;3.13;;
7338;SDS011;33747;49.524;8.390;2022-12-07T15:12:56;5.80;;;3.17;;
7338;SDS011;33747;49.524;8.390;2022-12-07T15:15:45;7.57;;;4.03;;
7338;SDS011;33747;49.524;8.390;2022-12-07T15:18:11;5.30;;;3.50;;
7338;SDS011;33747;49.524;8.390;2022-12-07T15:20:36;6.15;;;4.22;;
7338;SDS011;33747;49.524;8.390;2022-12-07T15:23:01;6.88;;;4.25;;
7338;SDS011;33747;49.524;8.390;2022-12-07T15:25:27;7.78;;;4.03;;
7338;SDS011;33747;49.524;8.390;2022-12-07T15:27:52;5.30;;;3.38;;
7338;SDS011;33747;49.524;8.390;2022-12-07T15:30:18;8.27;;;3.97;;
7338;SDS011;33747;49.524;8.390;2022-12-07T15:32:43;5.53;;;3.00;;
7338;SDS011;33747;49.524;8.390;2022-12-07T15:35:08;6.70;;;3.22;;
7338;SDS011;33747;49.524;8.390;2022-12-07T15:37:34;5.32;;;3.25;;
7338;SDS011;33747;49.524;8.390;2022-12-07T15:39:59;11.63;;;3.80;;
7338;SDS011;33747;49.524;8.390;2022-12-07T15:42:24;6.43;;;3.47;;
7338;SDS011;33747;49.524;8.390;2022-12-07T15:44:50;8.70;;;3.50;;
7338;SDS011;33747;49.524;8.390;2022-12-07T15:47:34;11.20;;;4.20;;
7338;SDS011;33747;49.524;8.390;2022-12-07T15:50:02;9.70;;;5.20;;
7338;SDS011;33747;49.524;8.390;2022-12-07T15:52:32;7.10;;;3.80;;
7338;SDS011;33747;49.524;8.390;2022-12-07T15:54:58;13.27;;;4.60;;
7338;SDS011;33747;49.524;8.390;2022-12-07T15:57:24;11.00;;;4.47;;
7338;SDS011;33747;49.524;8.390;2022-12-07T15:59:50;6.82;;;4.40;;
7338;SDS011;33747;49.524;8.390;2022-12-07T16:02:16;9.63;;;4.60;;
7338;SDS011;33747;49.524;8.390;2022-12-07T16:04:41;6.30;;;3.50;;
7338;SDS011;33747;49.524;8.390;2022-12-07T16:07:07;8.23;;;3.35;;
7338;SDS011;33747;49.524;8.390;2022-12-07T16:09:32;6.72;;;3.40;;
7338;SDS011;33747;49.524;8.390;2022-12-07T16:11:58;8.60;;;3.70;;
7338;SDS011;33747;49.524;8.390;2022-12-07T16:14:23;6.05;;;3.40;;
7338;SDS011;33747;49.524;8.390;2022-12-07T16:16:49;5.68;;;3.50;;
7338;SDS011;33747;49.524;8.390;2022-12-07T16:19:14;7.30;;;3.67;;
7338;SDS011;33747;49.524;8.390;2022-12-07T16:21:39;6.03;;;4.18;;
7338;SDS011;33747;49.524;8.390;2022-12-07T16:24:05;9.05;;;4.10;;
7338;SDS011;33747;49.524;8.390;2022-12-07T16:26:31;6.88;;;4.13;;
7338;SDS011;33747;49.524;8.390;2022-12-07T16:28:57;5.45;;;3.80;;
7338;SDS011;33747;49.524;8.390;2022-12-07T16:31:24;7.38;;;4.60;;
7338;SDS011;33747;49.524;8.390;2022-12-07T16:33:52;5.97;;;3.75;;
7338;SDS011;33747;49.524;8.390;2022-12-07T16:36:18;8.25;;;4.40;;
7338;SDS011;33747;49.524;8.390;2022-12-07T16:38:43;7.10;;;4.82;;
7338;SDS011;33747;49.524;8.390;2022-12-07T16:41:10;4.65;;;4.22;;
7338;SDS011;33747;49.524;8.390;2022-12-07T16:43:35;8.27;;;4.82;;
7338;SDS011;33747;49.524;8.390;2022-12-07T16:46:01;12.55;;;4.95;;
7338;SDS011;33747;49.524;8.390;2022-12-07T16:48:27;6.60;;;4.40;;
7338;SDS011;33747;49.524;8.390;2022-12-07T16:50:52;11.45;;;4.80;;
7338;SDS011;33747;49.524;8.390;2022-12-07T16:53:19;6.72;;;5.03;;
7338;SDS011;33747;49.524;8.390;2022-12-07T16:55:46;9.18;;;5.03;;